Time;durP1;ratioP1;P1;durP2;ratioP2;P2;SDS_P1;SDS_P2;PMS_P1;PMS_P2;Temp;Humidity;BMP_temperature;BMP_pressure;BME280_temperature;BME280_humidity;BME280_pressure;Samples;Min_cycle;Max_cycle;Signal;HPM_P1;HPM_P2
2022/06/29 00:00:37;;;;;;;6.22;3.55;;;;;;;15.73;92.90;97240.63;5009285;28;20042;-66
2022/06/29 00:03:04;;;;;;;6.65;3.55;;;;;;;15.67;93.13;97237.13;5009202;28;20610;-66
2022/06/29 00:05:31;;;;;;;6.35;3.25;;;;;;;15.73;92.12;97237.88;5009078;28;20371;-66
2022/06/29 00:07:58;;;;;;;4.95;3.53;;;;;;;15.51;92.68;97227.50;5011543;28;20056;-66
2022/06/29 00:10:33;;;;;;;6.25;3.55;;;;;;;15.34;94.38;97232.25;5028998;28;20488;-66
2022/06/29 00:13:00;;;;;;;6.32;4.00;;;;;;;15.27;94.85;97229.06;5028602;28;20399;-66
2022/06/29 00:15:27;;;;;;;6.05;3.63;;;;;;;15.36;94.73;97220.25;5029190;28;20515;-67
2022/06/29 00:17:54;;;;;;;5.60;4.25;;;;;;;15.31;94.44;97221.94;5029169;28;20045;-66
2022/06/29 00:20:21;;;;;;;8.05;3.85;;;;;;;15.29;94.90;97223.31;5027410;28;20046;-66
2022/06/29 00:22:48;;;;;;;7.22;3.80;;;;;;;15.34;94.39;97220.53;5029170;28;20069;-66
2022/06/29 00:25:15;;;;;;;8.00;3.78;;;;;;;15.43;94.66;97216.09;5028495;28;20048;-66
2022/06/29 00:27:42;;;;;;;5.72;4.13;;;;;;;15.47;94.27;97211.69;5028483;28;20041;-66
2022/06/29 00:30:10;;;;;;;4.95;3.47;;;;;;;15.59;94.07;97208.56;5028231;28;20045;-66
2022/06/29 00:32:37;;;;;;;6.00;3.58;;;;;;;15.54;94.16;97203.16;5028980;28;20489;-67
2022/06/29 00:35:04;;;;;;;6.53;3.85;;;;;;;15.36;94.44;97203.91;5028686;28;20042;-66
2022/06/29 00:37:31;;;;;;;7.03;3.55;;;;;;;15.32;94.60;97200.91;5028483;28;20049;-66
2022/06/29 00:39:58;;;;;;;6.47;4.20;;;;;;;15.29;95.07;97201.50;5029652;28;20046;-66
2022/06/29 00:42:24;;;;;;;7.93;3.92;;;;;;;15.27;95.37;97196.34;5028338;28;20049;-66
2022/06/29 00:44:51;;;;;;;5.35;3.42;;;;;;;15.17;95.58;97194.50;5028736;28;20049;-66
2022/06/29 00:47:17;;;;;;;5.03;3.53;;;;;;;15.20;96.29;97193.94;5013859;28;20041;-66
2022/06/29 00:49:44;;;;;;;5.15;3.47;;;;;;;15.25;95.62;97193.06;5023318;28;20525;-66
2022/06/29 00:52:13;;;;;;;9.88;4.00;;;;;;;15.27;95.36;97199.06;5028340;28;20041;-66
2022/06/29 00:54:45;;;;;;;5.55;3.92;;;;;;;15.23;95.80;97197.19;5015391;28;20042;-66
2022/06/29 00:57:18;;;;;;;6.78;3.70;;;;;;;15.23;95.64;97202.63;5008466;28;20049;-66
2022/06/29 00:59:49;;;;;;;5.53;3.78;;;;;;;15.26;95.45;97194.69;5008384;28;20041;-66
2022/06/29 01:02:22;;;;;;;4.47;2.95;;;;;;;15.30;95.31;97197.66;5007204;28;20046;-66
2022/06/29 01:04:50;;;;;;;6.90;3.70;;;;;;;15.34;95.23;97191.34;5008425;28;20042;-66
2022/06/29 01:07:19;;;;;;;5.82;4.82;;;;;;;15.30;95.28;97184.03;5007894;28;20045;-67
2022/06/29 01:09:46;;;;;;;6.45;3.45;;;;;;;15.33;95.16;97191.63;5025069;28;20143;-66
2022/06/29 01:12:14;;;;;;;6.10;3.38;;;;;;;15.32;94.96;97185.38;5027099;28;20049;-66
2022/06/29 01:14:42;;;;;;;5.30;3.80;;;;;;;15.37;94.78;97189.16;5027719;28;20345;-66
2022/06/29 01:17:11;;;;;;;4.78;3.67;;;;;;;15.44;94.26;97197.81;5021673;28;20516;-67
2022/06/29 01:19:38;;;;;;;6.30;3.35;;;;;;;15.59;93.17;97196.84;5020040;28;20397;-66
2022/06/29 01:22:12;;;;;;;5.07;3.40;;;;;;;15.67;92.50;97189.94;5044640;28;20048;-66
2022/06/29 01:24:41;;;;;;;6.63;3.47;;;;;;;15.76;92.29;97195.56;5028906;28;20497;-66
2022/06/29 01:27:08;;;;;;;4.97;3.35;;;;;;;15.71;92.41;97189.03;5027949;28;20045;-66
2022/06/29 01:29:34;;;;;;;4.85;3.45;;;;;;;15.52;93.26;97199.09;5027762;28;20489;-66
2022/06/29 01:32:01;;;;;;;6.43;3.42;;;;;;;15.57;93.01;97196.31;5026776;28;20060;-66
2022/06/29 01:34:30;;;;;;;5.40;3.85;;;;;;;15.64;92.83;97204.97;5028202;28;20044;-66
2022/06/29 01:36:58;;;;;;;5.93;3.30;;;;;;;15.69;92.16;97202.19;5027403;28;20068;-66
2022/06/29 01:39:25;;;;;;;4.22;3.22;;;;;;;15.71;92.04;97202.69;5028256;28;20049;-67
2022/06/29 01:41:51;;;;;;;5.63;3.67;;;;;;;15.68;91.93;97197.00;5027415;28;20048;-66
2022/06/29 01:44:18;;;;;;;5.85;3.47;;;;;;;15.61;92.46;97194.63;5027866;28;20045;-67
2022/06/29 01:46:45;;;;;;;6.45;3.70;;;;;;;15.62;92.29;97190.78;5027622;28;20057;-66
2022/06/29 01:49:12;;;;;;;5.30;3.40;;;;;;;15.60;92.51;97191.06;5027564;28;20049;-66
2022/06/29 01:51:38;;;;;;;6.50;3.38;;;;;;;15.62;92.40;97195.44;5027513;28;20042;-66
2022/06/29 01:54:05;;;;;;;5.93;3.75;;;;;;;15.58;92.32;97192.47;5030527;28;20065;-66
2022/06/29 01:56:32;;;;;;;6.18;3.97;;;;;;;15.49;92.67;97195.03;5007746;28;20045;-66
2022/06/29 01:58:59;;;;;;;7.15;3.60;;;;;;;15.44;92.89;97190.44;5007582;28;20046;-66
2022/06/29 02:01:26;;;;;;;7.85;3.97;;;;;;;15.32;93.89;97198.19;5007573;28;20034;-66
2022/06/29 02:03:53;;;;;;;6.10;3.67;;;;;;;15.32;94.23;97193.56;5007624;28;20339;-67
2022/06/29 02:06:21;;;;;;;5.65;3.70;;;;;;;15.20;95.04;97188.50;5006983;28;20045;-67
2022/06/29 02:08:47;;;;;;;6.88;3.70;;;;;;;15.17;96.07;97183.59;5016241;28;20052;-67
2022/06/29 02:11:14;;;;;;;7.93;4.53;;;;;;;15.25;94.98;97187.63;5026054;28;20052;-66
2022/06/29 02:13:41;;;;;;;8.95;3.90;;;;;;;14.97;95.65;97178.31;5027202;28;20045;-67
2022/06/29 02:16:08;;;;;;;6.10;3.75;;;;;;;14.70;97.48;97178.50;5025308;28;20052;-66
2022/06/29 02:18:35;;;;;;;7.18;3.90;;;;;;;14.66;98.26;97182.06;5026996;28;20045;-66
2022/06/29 02:21:01;;;;;;;5.93;4.63;;;;;;;14.67;98.23;97181.78;5027168;28;20041;-66
2022/06/29 02:23:28;;;;;;;8.50;4.47;;;;;;;14.77;98.32;97177.38;5026528;28;20041;-66
2022/06/29 02:25:54;;;;;;;5.55;4.20;;;;;;;14.86;97.82;97175.69;5029122;28;20075;-66
2022/06/29 02:28:21;;;;;;;6.28;4.15;;;;;;;14.98;97.13;97182.66;5029779;28;20048;-66
2022/06/29 02:36:18;;;;;;;5.57;4.40;;;;;;;15.22;95.35;97174.53;5030551;28;20042;-66
2022/06/29 02:38:44;;;;;;;5.40;4.00;;;;;;;15.32;95.20;97173.63;5031571;28;20048;-66
2022/06/29 02:41:11;;;;;;;4.30;3.53;;;;;;;15.33;95.11;97172.53;5030568;28;20047;-66
2022/06/29 02:43:37;;;;;;;7.93;3.75;;;;;;;15.38;95.15;97164.31;5031094;28;20052;-66
2022/06/29 02:46:04;;;;;;;6.38;4.10;;;;;;;15.45;94.51;97158.50;5029995;28;20047;-67
2022/06/29 02:48:32;;;;;;;6.45;4.00;;;;;;;15.50;94.24;97161.19;5018957;28;20124;-66
2022/06/29 02:50:59;;;;;;;7.30;3.78;;;;;;;15.50;94.20;97166.63;5030079;28;20041;-67
2022/06/29 02:53:26;;;;;;;7.38;3.85;;;;;;;15.53;94.46;97162.50;5026483;28;20133;-66
2022/06/29 02:55:53;;;;;;;7.32;4.50;;;;;;;15.57;93.96;97152.66;5008668;28;20046;-66
2022/06/29 02:58:20;;;;;;;5.03;3.95;;;;;;;15.62;93.57;97149.84;5010551;28;20210;-66
2022/06/29 03:00:47;;;;;;;5.78;3.65;;;;;;;15.61;93.45;97150.97;5010617;28;20073;-66
2022/06/29 03:03:13;;;;;;;9.30;4.45;;;;;;;15.48;94.36;97145.09;5010743;28;20049;-66
2022/06/29 03:05:40;;;;;;;8.15;4.45;;;;;;;15.48;94.43;97147.00;5009791;28;20041;-66
2022/06/29 03:08:07;;;;;;;7.60;3.92;;;;;;;15.49;94.48;97148.66;5014225;28;20042;-66
2022/06/29 03:10:33;;;;;;;5.18;3.70;;;;;;;15.53;94.09;97151.59;5029286;28;20049;-66
2022/06/29 03:13:00;;;;;;;5.28;3.65;;;;;;;15.58;94.08;97152.34;5030353;28;20095;-66
2022/06/29 03:15:27;;;;;;;10.02;4.07;;;;;;;15.62;93.44;97152.59;5029935;28;20042;-66
2022/06/29 03:17:54;;;;;;;7.88;3.78;;;;;;;15.75;92.86;97156.53;5030371;28;20052;-66
2022/06/29 03:20:21;;;;;;;4.95;3.53;;;;;;;15.81;92.04;97144.44;5030275;28;20045;-66
2022/06/29 03:22:48;;;;;;;10.77;4.43;;;;;;;15.67;92.99;97152.53;5028424;28;20056;-66
2022/06/29 03:25:16;;;;;;;8.30;4.03;;;;;;;15.66;93.04;97155.56;5028110;28;20488;-66
2022/06/29 03:27:43;;;;;;;6.68;4.28;;;;;;;15.57;93.74;97144.47;5027680;28;20049;-66
2022/06/29 03:30:10;;;;;;;5.63;3.35;;;;;;;15.57;93.75;97147.19;5022263;28;20045;-67
2022/06/29 03:32:37;;;;;;;5.13;3.78;;;;;;;15.57;93.67;97149.91;5025811;28;20073;-66
2022/06/29 03:35:05;;;;;;;6.95;3.83;;;;;;;15.65;93.14;97149.28;5027915;28;20521;-66
2022/06/29 03:37:31;;;;;;;6.43;3.90;;;;;;;15.63;93.06;97154.22;5020405;28;20056;-67
2022/06/29 03:39:58;;;;;;;5.95;3.75;;;;;;;15.62;93.20;97163.50;5028010;28;20052;-66
2022/06/29 03:42:25;;;;;;;5.65;3.80;;;;;;;15.69;92.81;97154.97;5027811;28;20050;-66
2022/06/29 03:44:51;;;;;;;8.13;4.07;;;;;;;15.72;92.33;97162.56;5025872;28;20055;-66
2022/06/29 03:47:18;;;;;;;7.25;4.00;;;;;;;15.65;92.67;97162.94;5047107;28;20052;-66
2022/06/29 03:49:44;;;;;;;5.35;4.07;;;;;;;15.53;93.69;97157.88;5029012;28;20056;-66
2022/06/29 03:52:11;;;;;;;6.72;3.88;;;;;;;15.45;94.23;97158.50;5033954;28;20041;-66
2022/06/29 03:54:38;;;;;;;8.23;4.20;;;;;;;15.43;94.25;97156.06;5024461;28;20050;-66
2022/06/29 03:57:05;;;;;;;5.40;4.28;;;;;;;15.34;94.51;97158.59;5008996;28;20529;-66
2022/06/29 03:59:32;;;;;;;6.72;4.55;;;;;;;15.32;94.73;97163.53;5009771;28;20041;-66
2022/06/29 04:01:58;;;;;;;7.25;4.22;;;;;;;15.42;94.12;97153.63;5009402;28;20042;-66
2022/06/29 04:04:25;;;;;;;6.72;4.22;;;;;;;15.44;93.75;97141.31;5009695;28;20497;-66
2022/06/29 04:06:52;;;;;;;5.95;3.95;;;;;;;15.41;93.67;97150.06;5007966;28;20053;-66
2022/06/29 04:09:18;;;;;;;5.35;3.85;;;;;;;15.45;93.74;97142.16;5020921;28;20060;-66
2022/06/29 04:11:54;;;;;;;5.13;3.92;;;;;;;15.50;93.17;97144.00;5029172;28;20052;-66
2022/06/29 04:14:26;;;;;;;8.55;4.40;;;;;;;15.57;92.84;97148.00;5029015;28;20095;-66
2022/06/29 04:16:55;;;;;;;5.82;4.18;;;;;;;15.56;92.89;97148.31;5029143;28;20048;-66
2022/06/29 04:19:21;;;;;;;5.57;4.30;;;;;;;15.45;93.97;97151.13;5029364;28;20164;-66
2022/06/29 04:21:49;;;;;;;7.80;4.78;;;;;;;15.56;93.19;97149.09;5028619;28;20050;-66
2022/06/29 04:24:15;;;;;;;11.77;5.30;;;;;;;15.66;92.48;97134.53;5028952;28;20053;-66
2022/06/29 04:26:43;;;;;;;8.88;4.57;;;;;;;15.63;92.75;97140.59;5028555;28;20058;-66
2022/06/29 04:29:10;;;;;;;7.40;5.07;;;;;;;15.59;93.53;97134.09;5028846;28;20049;-66
2022/06/29 04:31:36;;;;;;;6.93;4.50;;;;;;;15.48;93.79;97131.44;5027158;28;20049;-66
2022/06/29 04:34:03;;;;;;;6.50;5.15;;;;;;;15.43;94.11;97127.97;5028798;28;20106;-66
2022/06/29 04:36:30;;;;;;;6.07;4.65;;;;;;;15.43;94.04;97131.50;5028757;28;20037;-67
2022/06/29 04:38:57;;;;;;;5.55;4.50;;;;;;;15.52;94.13;97136.34;5028777;28;20045;-65
2022/06/29 04:41:24;;;;;;;8.30;4.85;;;;;;;15.64;93.34;97127.72;5037717;28;20053;-66
2022/06/29 04:43:51;;;;;;;7.28;4.75;;;;;;;15.65;93.61;97143.81;5029626;28;20536;-66
2022/06/29 04:46:20;;;;;;;8.00;4.35;;;;;;;15.68;93.68;97140.53;5019595;28;20053;-66
2022/06/29 04:48:59;;;;;;;6.90;4.68;;;;;;;15.67;94.13;97130.69;5021728;28;20044;-66
2022/06/29 04:51:28;;;;;;;7.30;4.40;;;;;;;15.68;93.84;97136.97;5012443;28;20128;-66
2022/06/29 04:53:56;;;;;;;8.80;4.75;;;;;;;15.70;93.85;97151.94;5030084;28;20065;-66
2022/06/29 04:56:25;;;;;;;7.72;5.15;;;;;;;15.79;93.36;97138.47;5025590;28;20044;-66
2022/06/29 04:58:53;;;;;;;11.35;4.63;;;;;;;15.96;92.62;97148.94;5026933;28;20291;-67
2022/06/29 05:01:21;;;;;;;12.25;4.90;;;;;;;16.09;92.10;97146.59;5045529;28;20087;-66
2022/06/29 05:03:48;;;;;;;6.38;4.78;;;;;;;16.20;91.42;97150.00;5046002;28;20095;-66
2022/06/29 05:06:15;;;;;;;7.95;4.57;;;;;;;16.35;91.01;97151.69;5041459;28;20049;-66
2022/06/29 05:08:42;;;;;;;6.05;4.65;;;;;;;16.58;90.16;97149.19;5029047;28;20053;-66
2022/06/29 05:11:09;;;;;;;7.53;4.78;;;;;;;16.63;89.56;97143.66;5023006;28;20456;-66
2022/06/29 05:13:35;;;;;;;6.30;4.38;;;;;;;16.68;89.58;97146.28;5023198;28;20057;-66
2022/06/29 05:16:02;;;;;;;6.38;4.80;;;;;;;16.81;89.86;97141.16;5033352;28;20041;-66
2022/06/29 05:18:29;;;;;;;8.25;4.50;;;;;;;16.89;89.57;97140.50;5031516;28;20049;-66
2022/06/29 05:20:56;;;;;;;7.95;5.03;;;;;;;16.99;89.58;97134.84;5025939;28;20076;-66
2022/06/29 05:23:22;;;;;;;8.98;4.70;;;;;;;17.07;88.49;97138.84;5036640;28;20071;-66
2022/06/29 05:25:49;;;;;;;6.40;3.97;;;;;;;17.11;88.82;97137.16;5024977;28;20128;-66
2022/06/29 05:28:16;;;;;;;8.15;4.50;;;;;;;17.20;89.20;97139.97;5029578;28;20045;-66
2022/06/29 05:30:43;;;;;;;6.30;4.22;;;;;;;17.32;88.13;97141.44;5027597;28;20313;-66
2022/06/29 05:33:09;;;;;;;5.80;4.38;;;;;;;17.44;88.00;97138.19;5027242;28;20412;-66
2022/06/29 05:35:36;;;;;;;6.60;4.43;;;;;;;17.55;86.78;97145.91;5027838;28;20384;-66
2022/06/29 05:38:03;;;;;;;8.13;4.38;;;;;;;17.68;86.55;97147.03;5028391;28;20575;-66
2022/06/29 05:40:30;;;;;;;5.53;4.55;;;;;;;17.79;84.81;97133.13;5027776;28;20046;-66
2022/06/29 05:42:57;;;;;;;6.28;4.18;;;;;;;17.91;85.02;97136.16;5026002;28;20061;-66
2022/06/29 05:45:27;;;;;;;11.15;4.00;;;;;;;18.05;84.17;97138.88;5027666;28;20045;-66
2022/06/29 05:47:54;;;;;;;6.50;3.30;;;;;;;18.18;83.17;97140.00;5021199;28;20390;-66
2022/06/29 05:50:22;;;;;;;8.00;5.25;;;;;;;18.31;82.30;97141.09;5030498;28;20068;-66
2022/06/29 05:52:49;;;;;;;8.27;4.45;;;;;;;18.44;82.46;97144.09;5029404;28;20049;-66
2022/06/29 05:55:16;;;;;;;6.18;3.67;;;;;;;18.56;81.96;97149.03;5045218;28;20064;-66
2022/06/29 05:57:43;;;;;;;6.57;3.75;;;;;;;18.68;81.73;97148.47;5038701;28;20491;-66
2022/06/29 06:00:10;;;;;;;8.30;4.00;;;;;;;18.81;80.19;97146.81;5035129;28;20049;-66
2022/06/29 06:02:37;;;;;;;6.18;3.70;;;;;;;18.93;80.02;97146.22;5039257;28;20388;-66
2022/06/29 06:05:04;;;;;;;9.27;3.35;;;;;;;19.03;79.56;97146.00;5025760;28;20513;-66
2022/06/29 06:07:31;;;;;;;4.45;3.30;;;;;;;19.14;79.21;97149.31;5023450;28;20112;-66
2022/06/29 06:09:58;;;;;;;5.18;3.63;;;;;;;19.41;78.32;97146.69;5028436;28;20508;-66
2022/06/29 06:12:24;;;;;;;5.32;3.55;;;;;;;19.66;77.33;97147.13;5026121;28;20524;-66
2022/06/29 06:14:51;;;;;;;7.70;3.60;;;;;;;19.89;74.82;97142.34;5027593;28;20056;-66
2022/06/29 06:17:17;;;;;;;5.22;3.22;;;;;;;19.99;74.68;97135.78;5042469;28;20049;-66
2022/06/29 06:19:44;;;;;;;6.75;3.72;;;;;;;20.11;74.94;97148.91;5022939;28;20132;-66
2022/06/29 06:22:10;;;;;;;4.22;3.00;;;;;;;20.24;74.52;97144.41;5042228;28;20501;-66
2022/06/29 06:24:37;;;;;;;5.50;2.90;;;;;;;20.37;74.05;97148.13;5014624;28;20052;-66
2022/06/29 06:27:04;;;;;;;4.40;2.90;;;;;;;20.51;73.50;97145.22;5040735;28;20403;-66
2022/06/29 06:29:30;;;;;;;5.53;3.10;;;;;;;20.57;72.46;97145.88;5035455;28;20540;-66
2022/06/29 06:31:57;;;;;;;4.88;2.90;;;;;;;20.51;72.53;97143.28;5025829;28;20120;-66
2022/06/29 06:34:26;;;;;;;5.28;2.95;;;;;;;20.51;72.19;97139.72;5035558;28;20057;-66
2022/06/29 06:36:52;;;;;;;4.53;3.10;;;;;;;20.57;71.93;97148.63;5027836;28;20076;-67
2022/06/29 06:39:19;;;;;;;4.45;2.67;;;;;;;20.63;71.18;97148.13;5024201;28;20113;-66
2022/06/29 06:41:46;;;;;;;4.70;2.60;;;;;;;20.68;71.11;97149.94;5038015;28;20097;-66
2022/06/29 06:44:12;;;;;;;5.15;2.80;;;;;;;20.79;70.79;97161.41;5021478;28;20049;-66
2022/06/29 06:46:41;;;;;;;5.07;3.13;;;;;;;20.84;70.71;97160.41;5040661;28;20045;-66
2022/06/29 06:49:08;;;;;;;5.88;3.00;;;;;;;20.72;70.48;97156.41;5034835;28;20287;-66
2022/06/29 06:51:35;;;;;;;4.35;2.63;;;;;;;20.85;70.84;97153.78;5024172;28;20057;-66
2022/06/29 06:54:01;;;;;;;4.82;2.72;;;;;;;20.85;70.92;97159.28;5035367;28;20045;-66
2022/06/29 06:56:28;;;;;;;9.40;3.35;;;;;;;20.89;70.96;97160.28;5039020;28;20325;-66
2022/06/29 06:58:54;;;;;;;5.47;3.30;;;;;;;21.02;70.03;97162.06;5024263;28;20053;-66
2022/06/29 07:01:21;;;;;;;5.38;2.92;;;;;;;21.07;70.37;97154.78;5024877;28;20479;-66
2022/06/29 07:03:48;;;;;;;4.57;3.28;;;;;;;21.00;71.50;97153.31;5035475;28;20124;-66
2022/06/29 07:06:15;;;;;;;6.05;3.42;;;;;;;20.83;71.79;97153.31;5031318;28;20044;-66
2022/06/29 07:08:41;;;;;;;6.05;3.00;;;;;;;20.89;71.50;97149.28;5034318;28;20045;-66
2022/06/29 07:11:08;;;;;;;4.07;2.95;;;;;;;21.03;70.56;97152.66;5028900;28;20192;-66
2022/06/29 07:13:36;;;;;;;5.97;3.00;;;;;;;21.22;71.00;97153.44;5047545;28;20037;-66
2022/06/29 07:16:05;;;;;;;4.63;3.42;;;;;;;21.31;70.25;97155.00;5042879;28;20068;-66
2022/06/29 07:18:32;;;;;;;5.55;3.30;;;;;;;21.54;70.04;97151.22;5038789;28;20134;-66
2022/06/29 07:21:00;;;;;;;5.93;2.70;;;;;;;21.89;68.16;97153.06;5030692;28;20501;-66
2022/06/29 07:23:27;;;;;;;4.32;2.95;;;;;;;21.95;67.54;97162.75;5037947;28;20107;-66
2022/06/29 07:25:55;;;;;;;4.97;3.05;;;;;;;22.24;66.07;97165.81;5026171;28;20536;-66
2022/06/29 07:28:22;;;;;;;6.13;2.70;;;;;;;22.43;65.54;97160.66;5028467;28;20128;-66
2022/06/29 07:30:48;;;;;;;4.28;2.70;;;;;;;22.55;64.47;97165.47;5032171;28;20040;-66
2022/06/29 07:33:15;;;;;;;4.47;2.70;;;;;;;22.57;65.32;97154.09;5037136;28;20571;-66
2022/06/29 07:35:42;;;;;;;4.53;2.88;;;;;;;22.43;65.41;97160.66;5041414;28;20050;-66
2022/06/29 07:38:10;;;;;;;4.22;2.90;;;;;;;22.27;66.27;97157.69;5028408;28;20051;-66
2022/06/29 07:40:37;;;;;;;4.00;3.03;;;;;;;22.02;66.50;97156.69;5028351;28;20053;-66
2022/06/29 07:43:04;;;;;;;4.80;2.75;;;;;;;21.92;66.76;97158.72;5038326;28;20059;-66
2022/06/29 07:45:31;;;;;;;4.93;3.13;;;;;;;21.89;66.26;97158.56;5034093;28;20057;-66
2022/06/29 07:48:00;;;;;;;7.65;3.13;;;;;;;22.00;65.03;97167.28;5046275;28;20355;-66
2022/06/29 07:50:27;;;;;;;5.45;3.50;;;;;;;21.81;65.99;97165.72;5040694;28;20049;-66
2022/06/29 07:52:54;;;;;;;4.10;2.78;;;;;;;21.99;64.92;97162.88;5024413;28;20038;-66
2022/06/29 07:55:20;;;;;;;4.70;2.75;;;;;;;22.10;64.47;97164.13;5009637;28;20049;-66
2022/06/29 07:57:47;;;;;;;5.75;2.65;;;;;;;22.28;62.93;97161.25;5022786;28;20045;-66
2022/06/29 08:00:14;;;;;;;6.90;3.35;;;;;;;22.43;62.23;97157.91;5037599;28;20328;-66
2022/06/29 08:02:41;;;;;;;4.72;3.17;;;;;;;22.47;60.37;97160.78;5030468;28;20053;-66
2022/06/29 08:05:08;;;;;;;5.90;3.15;;;;;;;22.82;60.89;97149.50;5036664;28;20574;-66
2022/06/29 08:07:35;;;;;;;5.88;3.00;;;;;;;22.83;58.95;97153.88;5029951;28;20041;-66
2022/06/29 08:10:03;;;;;;;4.82;2.75;;;;;;;23.12;58.64;97152.16;5028220;28;20056;-66
2022/06/29 08:12:30;;;;;;;5.82;3.28;;;;;;;23.04;58.43;97146.72;5031078;28;20397;-66
2022/06/29 08:14:56;;;;;;;4.15;2.80;;;;;;;23.36;57.67;97152.56;5035781;28;20072;-66
2022/06/29 08:17:23;;;;;;;4.47;2.63;;;;;;;23.41;56.94;97143.25;5034672;28;20335;-66
2022/06/29 08:19:58;;;;;;;4.97;2.63;;;;;;;23.31;56.41;97155.53;5033931;28;20044;-66
2022/06/29 08:22:25;;;;;;;8.50;2.75;;;;;;;23.13;57.77;97147.41;5039676;28;20507;-66
2022/06/29 08:24:51;;;;;;;5.50;3.00;;;;;;;23.36;57.89;97152.56;5038439;28;20247;-66
2022/06/29 08:27:22;;;;;;;6.70;2.92;;;;;;;23.60;57.40;97145.47;5046262;28;20043;-66
2022/06/29 08:30:10;;;;;;;5.55;2.80;;;;;;;23.85;57.05;97148.25;5033465;28;20323;-66
2022/06/29 08:32:39;;;;;;;5.30;2.47;;;;;;;24.07;57.08;97144.22;5037081;28;20452;-66
2022/06/29 08:35:06;;;;;;;5.93;3.20;;;;;;;24.27;55.73;97145.25;5043336;28;20284;-66
2022/06/29 08:37:36;;;;;;;4.72;2.70;;;;;;;24.55;54.35;97150.00;5035949;28;20041;-66
2022/06/29 08:40:06;;;;;;;4.25;2.88;;;;;;;24.16;55.83;97146.88;5020816;28;20049;-66
2022/06/29 08:42:34;;;;;;;4.82;2.92;;;;;;;24.55;54.64;97146.47;5035053;28;20053;-66
2022/06/29 08:45:02;;;;;;;4.35;2.20;;;;;;;24.89;53.76;97151.78;5045155;28;20048;-66
2022/06/29 08:47:28;;;;;;;3.72;2.50;;;;;;;24.49;55.87;97151.44;5034355;28;20041;-66
2022/06/29 08:49:56;;;;;;;4.40;2.58;;;;;;;24.90;54.10;97154.19;5023071;28;20052;-66
2022/06/29 08:52:25;;;;;;;6.65;3.40;;;;;;;24.96;52.55;97157.53;5033730;28;20040;-66
2022/06/29 08:54:53;;;;;;;3.88;2.60;;;;;;;24.91;52.76;97146.72;5025543;28;20046;-66
2022/06/29 08:57:25;;;;;;;3.35;2.25;;;;;;;25.24;52.06;97155.91;5008643;28;20286;-66
2022/06/29 08:59:53;;;;;;;4.70;2.63;;;;;;;25.19;52.58;97151.41;5008591;28;20042;-66
2022/06/29 09:02:28;;;;;;;5.80;2.45;;;;;;;25.25;52.74;97151.97;5008671;28;20053;-66
2022/06/29 09:04:56;;;;;;;3.90;2.60;;;;;;;24.99;52.47;97147.72;5008190;28;20038;-66
2022/06/29 09:07:25;;;;;;;3.78;2.20;;;;;;;24.61;54.00;97144.25;5008159;28;20573;-66
2022/06/29 09:10:13;;;;;;;3.90;2.42;;;;;;;25.13;51.36;97150.84;5026187;28;20056;-66
2022/06/29 09:12:40;;;;;;;4.50;2.80;;;;;;;24.97;51.54;97156.38;5027925;28;20048;-66
2022/06/29 09:15:09;;;;;;;4.25;2.50;;;;;;;25.26;51.97;97156.34;5027118;28;20048;-66
2022/06/29 09:17:36;;;;;;;4.00;2.65;;;;;;;24.61;52.46;97147.81;5027731;28;20049;-66
2022/06/29 09:20:04;;;;;;;6.07;2.67;;;;;;;24.81;51.13;97151.53;5028186;28;20053;-66
2022/06/29 09:22:53;;;;;;;6.10;2.80;;;;;;;24.97;51.38;97148.06;5027242;28;20046;-66
2022/06/29 09:25:21;;;;;;;7.10;3.00;;;;;;;25.19;51.50;97148.63;5007700;28;20417;-66
2022/06/29 09:27:48;;;;;;;3.97;2.65;;;;;;;25.12;53.14;97154.78;5007753;28;20565;-66
2022/06/29 09:30:35;;;;;;;4.53;2.95;;;;;;;24.78;52.96;97157.81;5008273;28;20045;-66
2022/06/29 09:33:06;;;;;;;4.72;3.10;;;;;;;24.40;54.37;97150.75;5007254;28;20069;-66
2022/06/29 09:35:35;;;;;;;4.68;2.85;;;;;;;24.84;52.22;97150.06;5007078;28;20493;-66
2022/06/29 09:38:25;;;;;;;5.47;2.75;;;;;;;24.61;52.60;97153.34;5010673;28;20412;-66
2022/06/29 09:41:11;;;;;;;3.78;2.80;;;;;;;24.81;52.06;97154.31;5027355;28;20582;-66
2022/06/29 09:43:40;;;;;;;4.55;3.05;;;;;;;24.85;51.84;97148.09;5027663;28;20049;-66
2022/06/29 09:46:08;;;;;;;7.07;2.92;;;;;;;24.84;51.75;97147.28;5027152;28;20388;-66
2022/06/29 09:48:37;;;;;;;3.53;2.60;;;;;;;24.57;53.36;97151.66;5027661;28;20037;-66
2022/06/29 09:53:55;;;;;;;3.30;2.47;;;;;;;25.34;52.01;97155.38;5019885;28;20121;-66
2022/06/29 09:56:24;;;;;;;5.78;3.42;;;;;;;25.26;51.22;97150.78;5006978;28;20050;-66
2022/06/29 09:58:52;;;;;;;4.80;2.70;;;;;;;24.91;53.09;97158.56;5007339;28;20092;-66
2022/06/29 10:04:14;;;;;;;4.43;2.75;;;;;;;25.28;52.54;97154.03;5029366;28;20040;-66
2022/06/29 10:06:42;;;;;;;5.63;2.88;;;;;;;25.47;51.84;97161.66;5038344;28;20134;-66
2022/06/29 10:09:08;;;;;;;8.80;2.88;;;;;;;25.28;52.35;97151.25;5032525;28;20057;-66
2022/06/29 10:14:59;;;;;;;6.13;3.15;;;;;;;25.43;52.02;97157.97;5030122;28;20049;-66
2022/06/29 10:17:56;;;;;;;5.45;2.70;;;;;;;26.19;49.74;97148.75;5027220;28;20437;-66
2022/06/29 10:20:35;;;;;;;3.60;2.88;;;;;;;25.12;53.15;97145.66;5026269;28;20429;-66
2022/06/29 10:23:02;;;;;;;4.53;3.28;;;;;;;25.96;51.68;97151.38;5027478;28;20505;-66
2022/06/29 10:25:28;;;;;;;5.30;2.80;;;;;;;26.54;48.80;97154.66;5026700;28;20468;-66
2022/06/29 10:28:27;;;;;;;5.88;2.58;;;;;;;26.04;50.75;97150.38;5010614;28;20420;-66
2022/06/29 10:30:55;;;;;;;5.47;2.80;;;;;;;26.32;49.88;97140.34;5005865;28;20054;-66
2022/06/29 10:33:35;;;;;;;7.78;3.28;;;;;;;26.25;50.40;97152.03;5007373;28;20053;-66
2022/06/29 10:36:08;;;;;;;5.43;3.30;;;;;;;25.41;52.35;97143.66;5006114;28;20136;-67
2022/06/29 10:38:57;;;;;;;4.72;3.38;;;;;;;25.48;53.15;97152.16;5014145;28;20041;-66
2022/06/29 10:44:09;;;;;;;6.07;3.20;;;;;;;25.93;52.32;97141.81;5023910;28;20068;-66
2022/06/29 10:46:58;;;;;;;4.10;2.97;;;;;;;26.17;52.03;97139.19;5028285;28;20504;-66
2022/06/29 10:49:25;;;;;;;4.82;3.25;;;;;;;25.54;52.58;97131.31;5030514;28;20046;-66
2022/06/29 10:51:53;;;;;;;4.38;3.08;;;;;;;25.95;51.79;97135.91;5036075;28;20044;-66
2022/06/29 10:54:27;;;;;;;4.22;3.10;;;;;;;25.30;52.97;97129.53;5029586;28;20041;-66
2022/06/29 10:56:54;;;;;;;5.43;3.25;;;;;;;25.55;51.59;97132.13;5023193;28;20471;-66
2022/06/29 10:59:31;;;;;;;5.60;2.78;;;;;;;26.13;50.88;97130.75;5041191;28;20623;-66
2022/06/29 11:02:17;;;;;;;5.20;3.00;;;;;;;26.10;50.89;97123.97;5028238;28;20425;-66
2022/06/29 11:04:43;;;;;;;4.97;3.10;;;;;;;25.61;51.85;97130.72;5048574;28;20052;-66
2022/06/29 11:12:51;;;;;;;5.03;3.20;;;;;;;25.16;53.77;97128.00;5029656;28;20060;-66
2022/06/29 11:15:45;;;;;;;6.05;3.20;;;;;;;25.47;54.81;97120.06;5029009;28;20764;-66
2022/06/29 11:18:14;;;;;;;4.97;3.22;;;;;;;24.87;53.95;97120.88;5018880;28;20121;-66
2022/06/29 11:20:43;;;;;;;5.68;3.08;;;;;;;24.97;54.00;97117.59;5045857;28;20405;-66
2022/06/29 11:23:10;;;;;;;4.25;3.20;;;;;;;25.56;52.99;97123.50;5047815;28;20049;-66
2022/06/29 11:25:39;;;;;;;4.43;3.00;;;;;;;25.57;52.50;97118.75;5030382;28;20044;-66
2022/06/29 11:28:06;;;;;;;4.88;3.33;;;;;;;25.37;53.84;97121.41;5036165;28;20368;-66
2022/06/29 11:30:33;;;;;;;7.88;3.10;;;;;;;25.98;51.88;97118.53;5041245;28;20045;-66
2022/06/29 11:33:10;;;;;;;4.65;3.10;;;;;;;26.49;48.88;97128.00;5028108;28;20497;-66
2022/06/29 11:35:38;;;;;;;3.47;2.47;;;;;;;26.53;48.46;97115.00;5027513;28;20072;-66
2022/06/29 11:38:07;;;;;;;4.57;2.88;;;;;;;27.00;47.36;97115.97;5026762;28;20033;-66
2022/06/29 11:40:35;;;;;;;4.10;2.40;;;;;;;27.17;46.70;97110.28;5047441;28;20041;-66
2022/06/29 11:43:14;;;;;;;3.45;2.50;;;;;;;27.09;46.68;97106.59;5031908;28;20424;-66
2022/06/29 11:45:44;;;;;;;5.07;3.15;;;;;;;27.56;46.70;97101.03;5020186;28;20045;-67
2022/06/29 11:48:15;;;;;;;4.45;3.10;;;;;;;28.33;44.63;97095.47;5041200;28;20404;-66
2022/06/29 11:51:10;;;;;;;5.53;2.78;;;;;;;27.75;46.39;97089.84;5027196;28;20052;-66
2022/06/29 11:53:47;;;;;;;4.13;3.00;;;;;;;27.29;46.94;97093.44;5043529;28;20052;-67
2022/06/29 11:56:16;;;;;;;4.80;3.00;;;;;;;26.94;48.72;97092.38;5033387;28;20067;-66
2022/06/29 11:58:51;;;;;;;4.00;2.70;;;;;;;27.72;45.83;97098.97;5027016;28;20048;-66
2022/06/29 12:01:20;;;;;;;4.28;2.60;;;;;;;27.56;46.13;97101.84;5040980;28;20176;-66
2022/06/29 12:04:02;;;;;;;4.13;2.90;;;;;;;27.99;44.98;97087.81;5024795;28;20056;-66